createdAt,value
2022-12-19T00:03:22.034Z,3.55
2022-12-19T00:08:19.992Z,3.57
2022-12-19T00:13:18.089Z,3.41
2022-12-19T00:18:16.074Z,3.61
2022-12-19T00:23:15.327Z,3.10
2022-12-19T00:28:13.439Z,3.36
2022-12-19T00:33:11.503Z,3.36
2022-12-19T00:38:09.421Z,2.58
2022-12-19T00:43:08.636Z,2.81
2022-12-19T00:48:07.308Z,2.70
2022-12-19T00:53:07.293Z,2.38
2022-12-19T00:58:05.348Z,2.49
2022-12-19T01:03:05.689Z,2.75
2022-12-19T01:08:03.846Z,2.41
2022-12-19T01:13:02.000Z,2.32
2022-12-19T01:17:59.842Z,2.26
2022-12-19T01:23:00.213Z,2.49
2022-12-19T01:27:58.610Z,2.39
2022-12-19T01:32:57.448Z,2.57
2022-12-19T01:38:07.278Z,2.14
2022-12-19T01:43:07.124Z,2.38
2022-12-19T01:48:29.208Z,2.05
2022-12-19T01:53:30.104Z,1.83
2022-12-19T01:58:27.998Z,1.58
2022-12-19T02:03:28.032Z,1.48
2022-12-19T02:08:26.130Z,1.54
2022-12-19T02:13:25.680Z,1.59
2022-12-19T02:18:28.869Z,1.36
2022-12-19T02:23:43.411Z,1.55
2022-12-19T02:28:56.956Z,1.29
2022-12-19T02:33:57.830Z,1.44
2022-12-19T02:38:59.995Z,1.45
2022-12-19T02:43:59.726Z,1.23
2022-12-19T02:49:02.757Z,1.50
2022-12-19T02:54:01.900Z,1.26
2022-12-19T02:59:09.205Z,1.39
2022-12-19T03:04:15.957Z,1.43
2022-12-19T03:09:17.259Z,1.18
2022-12-19T03:14:17.610Z,1.62
2022-12-19T03:19:17.332Z,1.65
2022-12-19T03:24:16.118Z,1.50
2022-12-19T03:29:16.959Z,1.16
2022-12-19T03:34:18.445Z,0.94
2022-12-19T03:39:18.335Z,0.93
2022-12-19T03:44:17.133Z,1.30
2022-12-19T03:49:16.545Z,1.08
2022-12-19T03:54:17.529Z,1.06
2022-12-19T03:59:21.561Z,1.10
2022-12-19T04:04:22.693Z,1.05
2022-12-19T04:09:22.757Z,1.13
2022-12-19T04:14:25.064Z,1.01
2022-12-19T04:19:29.304Z,0.63
2022-12-19T04:24:29.236Z,0.47
2022-12-19T04:29:28.706Z,0.38
2022-12-19T04:34:27.920Z,0.72
2022-12-19T04:39:26.355Z,0.62
2022-12-19T04:44:24.261Z,0.63
2022-12-19T04:49:22.441Z,0.73
2022-12-19T04:54:22.413Z,0.79
2022-12-19T04:59:20.559Z,0.66
2022-12-19T05:04:18.476Z,0.23
2022-12-19T05:09:16.328Z,0.31
2022-12-19T05:14:16.053Z,0.11
2022-12-19T05:19:13.902Z,0.25
2022-12-19T05:24:13.025Z,0.24
2022-12-19T05:29:11.577Z,0.09
2022-12-19T05:34:10.832Z,-0.11
2022-12-19T05:39:08.793Z,0.20
2022-12-19T05:44:06.677Z,0.13
2022-12-19T05:49:04.565Z,-0.26
2022-12-19T05:54:05.221Z,-0.24
2022-12-19T05:59:03.244Z,0.00
2022-12-19T06:04:01.098Z,-0.12
2022-12-19T06:09:00.397Z,0.00
2022-12-19T06:13:59.614Z,-0.02
2022-12-19T06:18:57.481Z,0.31
2022-12-19T06:23:56.036Z,-0.05
2022-12-19T06:28:54.299Z,0.15
2022-12-19T06:33:53.561Z,0.38
2022-12-19T06:38:52.167Z,0.71
2022-12-19T06:43:53.423Z,0.64
2022-12-19T06:48:53.039Z,0.96
2022-12-19T06:53:51.266Z,0.87
2022-12-19T06:58:49.270Z,0.54
2022-12-19T07:03:47.779Z,0.29
2022-12-19T07:08:47.096Z,0.19
2022-12-19T07:13:44.961Z,0.16
2022-12-19T07:18:43.659Z,1.54
2022-12-19T07:23:42.870Z,2.43
2022-12-19T07:28:44.575Z,2.85
2022-12-19T07:33:45.576Z,2.91
2022-12-19T07:38:44.482Z,2.92
2022-12-19T07:43:43.736Z,3.81
2022-12-19T07:48:41.642Z,2.70
2022-12-19T07:53:39.424Z,2.18
2022-12-19T07:58:37.290Z,1.95
2022-12-19T08:03:36.653Z,1.90
2022-12-19T08:08:34.673Z,1.80
2022-12-19T08:13:37.319Z,1.58
2022-12-19T08:18:39.104Z,1.99
2022-12-19T08:23:36.995Z,2.08
2022-12-19T08:28:35.578Z,1.89
2022-12-19T08:33:33.452Z,1.63
2022-12-19T08:38:32.726Z,1.59
2022-12-19T08:43:31.254Z,1.72
2022-12-19T08:48:29.295Z,1.97
2022-12-19T08:53:28.559Z,2.14
2022-12-19T08:58:28.519Z,2.28
2022-12-19T09:03:26.716Z,2.19
2022-12-19T09:08:31.340Z,2.74
2022-12-19T09:13:31.032Z,2.89
2022-12-19T09:18:29.093Z,3.35
2022-12-19T09:23:28.375Z,3.36
2022-12-19T09:28:27.689Z,3.41
2022-12-19T09:33:27.850Z,3.73
2022-12-19T09:38:26.557Z,3.71
2022-12-19T09:43:29.649Z,3.73
2022-12-19T09:48:28.995Z,4.45
2022-12-19T09:53:29.298Z,3.70
2022-12-19T09:58:36.334Z,3.01
2022-12-19T10:03:40.202Z,4.02
2022-12-19T10:09:10.018Z,3.88
2022-12-19T10:14:04.820Z,3.37
2022-12-19T10:19:06.224Z,3.79
2022-12-19T10:24:16.106Z,3.90
2022-12-19T10:29:25.448Z,4.52
2022-12-19T10:34:25.412Z,4.34
2022-12-19T10:39:28.738Z,4.05
2022-12-19T10:44:28.845Z,4.55
2022-12-19T10:49:28.798Z,4.42
2022-12-19T10:54:33.353Z,4.40
2022-12-19T10:59:31.741Z,4.78
2022-12-19T11:04:33.044Z,3.73
2022-12-19T11:09:32.226Z,4.41
2022-12-19T11:19:16.924Z,4.18
2022-12-19T11:29:44.181Z,3.50
2022-12-19T11:29:54.651Z,3.28
2022-12-19T11:35:56.711Z,3.83
2022-12-19T11:40:57.878Z,4.29
2022-12-19T11:45:58.137Z,3.33
2022-12-19T11:51:01.000Z,4.32
2022-12-19T11:56:02.486Z,3.68
2022-12-19T12:01:06.296Z,3.20
2022-12-19T12:06:09.159Z,2.57
2022-12-19T12:16:33.653Z,2.80
2022-12-19T12:27:21.631Z,3.28
2022-12-19T12:31:21.386Z,3.85
2022-12-19T12:31:50.783Z,3.14
2022-12-19T12:35:34.263Z,2.29
2022-12-19T12:38:28.452Z,3.21
2022-12-19T12:43:37.513Z,4.35
2022-12-19T12:48:37.210Z,5.48
2022-12-19T12:53:38.392Z,5.49
2022-12-19T12:59:03.405Z,6.31
2022-12-19T13:04:04.173Z,4.88
2022-12-19T13:09:06.359Z,4.20
2022-12-19T13:14:05.057Z,3.63
2022-12-19T13:19:04.477Z,2.84
2022-12-19T13:24:18.023Z,2.99
2022-12-19T13:29:33.894Z,2.28
2022-12-19T13:34:37.281Z,1.97
2022-12-19T13:40:01.455Z,2.21
2022-12-19T13:45:02.908Z,1.91
2022-12-19T13:50:02.172Z,1.57
2022-12-19T13:55:00.479Z,1.93
2022-12-19T14:00:01.368Z,1.75
2022-12-19T14:05:08.269Z,1.49
2022-12-19T14:11:41.003Z,1.24
2022-12-19T14:15:29.479Z,1.21
2022-12-19T14:22:02.580Z,1.08
2022-12-19T14:28:17.242Z,1.15
2022-12-19T14:31:12.469Z,1.15
2022-12-19T14:36:17.472Z,0.84
2022-12-19T14:41:42.109Z,0.52
2022-12-19T14:54:08.628Z,0.60
2022-12-19T14:54:41.627Z,0.52
2022-12-19T14:57:25.339Z,0.63
2022-12-19T15:02:39.608Z,0.84
2022-12-19T15:07:42.617Z,0.69
2022-12-19T15:14:51.907Z,0.67
2022-12-19T15:18:26.823Z,0.43
2022-12-19T15:23:26.158Z,0.40
2022-12-19T15:28:26.693Z,0.35
2022-12-19T15:33:24.656Z,0.37
2022-12-19T15:38:22.492Z,0.23
2022-12-19T15:44:01.881Z,0.14
2022-12-19T15:48:43.913Z,0.19
2022-12-19T15:53:42.304Z,0.19
2022-12-19T15:58:41.667Z,0.04
2022-12-19T16:03:40.365Z,-0.24
2022-12-19T16:08:38.637Z,-0.11
2022-12-19T16:13:36.702Z,0.08
2022-12-19T16:18:36.556Z,-0.07
2022-12-19T16:23:34.510Z,0.09
2022-12-19T16:28:35.113Z,-0.04
2022-12-19T16:33:33.696Z,-0.02
2022-12-19T16:38:33.554Z,-0.13
2022-12-19T16:43:33.415Z,-0.51
2022-12-19T16:48:31.696Z,-0.46
2022-12-19T16:53:30.454Z,-0.52
2022-12-19T16:58:30.931Z,-0.56
2022-12-19T17:03:31.456Z,-0.61
2022-12-19T17:08:29.847Z,-0.33
2022-12-19T17:13:29.506Z,-0.66
2022-12-19T17:18:29.889Z,-0.54
2022-12-19T17:23:29.574Z,-0.52
2022-12-19T17:28:29.580Z,-0.71
2022-12-19T17:33:30.081Z,-0.48
2022-12-19T17:38:28.342Z,-0.67
2022-12-19T17:43:26.358Z,-0.76
2022-12-19T17:48:28.677Z,-0.54
2022-12-19T17:53:27.418Z,-0.63
2022-12-19T17:58:25.568Z,-0.93
2022-12-19T18:03:24.991Z,-0.99
2022-12-19T18:08:28.772Z,-0.92
2022-12-19T18:13:27.614Z,-1.07
2022-12-19T18:18:28.164Z,-1.03
2022-12-19T18:23:27.844Z,-1.14
2022-12-19T18:28:25.830Z,-0.79
2022-12-19T18:33:24.842Z,-1.11
2022-12-19T18:38:24.011Z,-1.23
2022-12-19T18:43:24.097Z,-0.85
2022-12-19T18:48:25.361Z,-0.65
2022-12-19T18:53:34.440Z,-0.44
2022-12-19T18:58:35.398Z,-0.36
2022-12-19T19:03:34.964Z,-0.18
2022-12-19T19:08:34.331Z,-0.49
2022-12-19T19:14:12.575Z,-0.23
2022-12-19T19:19:13.274Z,-0.41
2022-12-19T19:24:14.717Z,-0.26
2022-12-19T19:29:15.115Z,-0.16
2022-12-19T19:34:15.988Z,-0.53
2022-12-19T19:39:15.863Z,-0.47
2022-12-19T19:44:15.556Z,-0.64
2022-12-19T19:49:13.762Z,-0.52
2022-12-19T19:54:11.828Z,-0.27
2022-12-19T19:59:09.882Z,0.19
2022-12-19T20:04:09.352Z,0.10
2022-12-19T20:09:08.007Z,0.22
2022-12-19T20:14:06.245Z,0.38
2022-12-19T20:19:04.533Z,0.26
2022-12-19T20:24:04.068Z,0.18
2022-12-19T20:29:02.365Z,-0.36
2022-12-19T20:34:00.471Z,0.07
2022-12-19T20:38:59.591Z,-0.27
2022-12-19T20:43:58.926Z,-0.05
2022-12-19T20:48:58.169Z,-0.36
2022-12-19T20:53:56.126Z,-0.21
2022-12-19T20:58:54.101Z,-0.56
2022-12-19T21:03:53.831Z,-0.54
2022-12-19T21:08:52.142Z,-0.57
2022-12-19T21:13:50.084Z,-0.42
2022-12-19T21:18:49.387Z,-0.29
2022-12-19T21:23:49.482Z,-0.04
2022-12-19T21:28:47.476Z,-0.07
2022-12-19T21:33:45.974Z,0.03
2022-12-19T21:38:43.913Z,-0.03
2022-12-19T21:43:44.052Z,0.46
2022-12-19T21:48:43.164Z,0.28
2022-12-19T21:53:41.348Z,0.57
2022-12-19T21:58:39.209Z,0.15
2022-12-19T22:03:38.897Z,-0.07
2022-12-19T22:08:37.366Z,-0.28
2022-12-19T22:13:35.560Z,-0.11
2022-12-19T22:18:35.645Z,-0.06
2022-12-19T22:23:35.114Z,-0.24
2022-12-19T22:28:33.970Z,-0.17
2022-12-19T22:33:32.236Z,-0.12
2022-12-19T22:38:30.473Z,-0.41
2022-12-19T22:43:30.464Z,-0.27
2022-12-19T22:48:28.923Z,-0.09
2022-12-19T22:53:27.070Z,0.04
2022-12-19T22:58:25.058Z,-0.11
2022-12-19T23:03:24.491Z,0.34
2022-12-19T23:08:22.584Z,0.59
2022-12-19T23:13:20.863Z,0.34
2022-12-19T23:18:19.141Z,0.11
2022-12-19T23:23:18.868Z,0.29
2022-12-19T23:28:16.891Z,0.12
2022-12-19T23:33:14.750Z,0.41
2022-12-19T23:38:12.700Z,0.16
2022-12-19T23:43:14.257Z,0.31
2022-12-19T23:48:12.345Z,0.12
2022-12-19T23:53:10.214Z,0.53
2022-12-19T23:58:14.590Z,-0.14
